Flight Track Log - Related Links

Times and Time Zones

All times are in EDT time to prevent confusion due to time zone crossing. See the PDT4226 flight status page for this flight to view local times or setup timezone preferences in your user account.

Time Position Orientation Groundspeed Altitude Reporting Facility
EDT Latitude Longitude Course Direction KTS MPH feet Rate Location/Type
Tue 12:52:07 PM 39.9000 -75.2500 311° West 128 147 600  Level Philadelphia TRACON
Tue 12:52:43 PM 39.9167 -75.2667 323° Northwest 145 167 1,400 1,389 Climbing Philadelphia TRACON
Tue 12:53:55 PM 39.9333 -75.3333 288° West 158 182 3,100 1,409 Climbing Philadelphia TRACON
Tue 12:54:55 PM 39.9500 -75.3833 294° West 162 186 4,500 1,500 Climbing Philadelphia TRACON
Tue 12:55:00 PM 40.1184 -75.4684 323° Northwest  Level FlightAware Approximate
Tue 12:55:55 PM 40.0000 -75.4000 346° North 169 194 6,100  Level Philadelphia TRACON
Tue 12:56:00 PM 40.1817 -75.5226 311° West  Level FlightAware Approximate
Tue 12:56:55 PM 40.0333 -75.4333 323° Northwest 151 174 7,400  Level Philadelphia TRACON
Tue 12:57:00 PM 40.2396 -75.5843 311° West  Level FlightAware Approximate
Tue 12:58:01 PM 40.0681 -75.4633 327° Northwest 174 200 8,600  Level New York Center
Tue 12:59:00 PM 40.1172 -75.4883 339° North 174 200 9,800 1,100 Climbing New York Center
Tue 01:00:01 PM 40.1597 -75.5183 332° Northwest 174 200 10,800 950 Climbing New York Center
Tue 01:01:00 PM 40.2003 -75.5483 331° Northwest 169 194 11,700 900 Climbing New York Center
Tue 01:02:01 PM 40.2425 -75.5839 327° Northwest 176 203 12,600 885 Climbing New York Center
Tue 01:03:02 PM 40.2739 -75.6350 309° West 176 203 13,500 706 Climbing New York Center
Tue 01:04:00 PM 40.3072 -75.6836 312° West 181 208 14,000 252 Climbing New York Center
Tue 01:05:01 PM 40.3425 -75.7353 312° West 199 229 14,000  Level New York Center
Tue 01:06:02 PM 40.3817 -75.7981 309° West 216 249 14,000  Level New York Center
Tue 01:07:02 PM 40.4283 -75.8722 310° West 230 265 14,000  Level New York Center
Tue 01:08:00 PM 40.4714 -75.9383 311° West 241 277 14,000  Level New York Center
Tue 01:09:00 PM 40.5100 -76.0067 307° West 241 277 14,000  Level New York Center
Tue 01:10:01 PM 40.5528 -76.0783 308° West 241 277 14,000  Level New York Center
Tue 01:11:01 PM 40.5958 -76.1389 313° West 241 277 14,000  Level New York Center
Tue 01:12:02 PM 40.6347 -76.1994 310° West 235 270 14,000  Level New York Center
Tue 01:13:03 PM 40.6819 -76.2606 316° Northwest 235 270 14,000  Level New York Center
Tue 01:14:02 PM 40.7533 -76.2472 North 209 241 14,000  Level New York Center
Tue 01:15:01 PM 40.8183 -76.2414 North 226 260 14,000  Level New York Center
Tue 01:16:03 PM 40.8850 -76.2414 360° North 235 270 14,000  Level New York Center
Tue 01:17:00 PM 40.9456 -76.2381 North 235 270 14,000  Level New York Center
Tue 01:18:02 PM 41.0128 -76.2242 North 235 270 14,000  Level New York Center
Tue 01:19:00 PM 41.0858 -76.2217 North 235 270 14,000  Level New York Center
Tue 01:20:01 PM 41.1531 -76.2133 North 240 276 14,000  Level New York Center
Tue 01:21:02 PM 41.2200 -76.2078 North 240 276 14,000  Level New York Center
Tue 01:22:03 PM 41.2806 -76.2042 North 234 269 14,000  Level New York Center
Tue 01:23:02 PM 41.3475 -76.1986 North 234 269 14,000  Level New York Center
Tue 01:24:02 PM 41.4225 -76.1964 North 234 269 14,000 -102 Level New York Center
Tue 01:25:00 PM 41.4892 -76.1933 North 234 269 13,800 -605 Descending New York Center
Tue 01:26:01 PM 41.5606 -76.1825 North 240 276 12,800 -942 Descending New York Center
Tue 01:27:01 PM 41.6272 -76.1797 North 256 295 11,900 -950 Descending New York Center
Tue 01:28:01 PM 41.7006 -76.1744 North 256 295 10,900 -1,091 Descending New York Center
Tue 01:29:02 PM 41.7842 -76.1675 North 256 295 9,700 -1,361 Descending New York Center
Tue 01:30:00 PM 41.8614 -76.1625 North 261 300 8,200 -1,513 Descending New York Center
Tue 01:31:01 PM 41.9119 -76.1025 41° Northeast 243 280 6,700 -1,475 Descending New York Center
Tue 01:32:02 PM 41.9217 -76.0225 81° East 223 257 5,200 -1,350 Descending New York Center
Tue 01:33:01 PM 41.9564 -75.9472 58° Northeast 228 262 4,000 -610 Descending New York Center
Tue 01:34:00 PM 41.9964 -75.8833 50° Northeast 213 245 4,000 -300 Level New York Center
Tue 01:35:01 PM 42.0489 -75.8761 North 186 214 3,400 -439 Descending New York Center
Tue 01:36:03 PM 42.0983 -75.8883 350° North 186 214 3,100 -202 Descending New York Center
Tue 01:37:00 PM 42.1386 -75.9222 328° Northwest 173 199 3,000 -458 Descending New York Center
Tue 01:38:01 PM 42.1747 -75.9531 328° Northwest 168 193 2,200 -787 Descending New York Center

Login

Don't have an account? Register now (free) for customized features, flight alerts, and more!